Time;durP1;ratioP1;P1;durP2;ratioP2;P2;SDS_P1;SDS_P2;PMS_P1;PMS_P2;Temp;Humidity;BMP_temperature;BMP_pressure;BME280_temperature;BME280_humidity;BME280_pressure;Samples;Min_cycle;Max_cycle;Signal;HPM_P1;HPM_P2
2022/04/09 00:02:34;;;;;;;15.45;2.08;;;3.80;99.90;;;;;;15632811;22;20027;-86
2022/04/09 00:08:36;;;;;;;10.13;2.13;;;3.90;99.90;;;;;;15619082;22;20538;-88
2022/04/09 00:14:38;;;;;;;11.82;1.92;;;3.90;99.90;;;;;;15625861;22;20015;-88
2022/04/09 00:20:40;;;;;;;10.35;2.47;;;3.90;99.90;;;;;;15663855;22;20060;-86
2022/04/09 00:26:42;;;;;;;10.93;2.05;;;3.80;99.90;;;;;;15605565;22;20442;-87
2022/04/09 00:32:43;;;;;;;11.23;2.38;;;3.70;99.90;;;;;;15605232;22;20027;-87
2022/04/09 00:38:45;;;;;;;11.32;2.70;;;3.80;99.90;;;;;;15631408;22;20030;-87
2022/04/09 00:44:49;;;;;;;11.10;2.10;;;3.80;99.90;;;;;;15600412;22;20105;-87
2022/04/09 00:50:52;;;;;;;10.20;2.22;;;3.70;99.90;;;;;;15634195;22;20538;-85
2022/04/09 00:56:59;;;;;;;5.93;2.00;;;3.70;99.90;;;;;;15634899;22;20053;-86
2022/04/09 01:03:02;;;;;;;7.35;1.55;;;3.70;99.90;;;;;;15627447;22;20027;-86
2022/04/09 01:09:06;;;;;;;11.00;2.05;;;3.60;99.90;;;;;;15599972;22;20079;-86
2022/04/09 01:15:08;;;;;;;8.67;2.00;;;3.60;99.90;;;;;;15604671;22;20470;-88
2022/04/09 01:21:10;;;;;;;14.07;2.72;;;3.60;99.90;;;;;;15627457;22;20046;-88
2022/04/09 01:27:12;;;;;;;12.98;2.22;;;3.60;99.90;;;;;;15635301;22;20105;-87
2022/04/09 01:33:15;;;;;;;14.68;2.00;;;3.60;99.90;;;;;;15601848;22;20079;-86
2022/04/09 01:39:18;;;;;;;7.18;2.00;;;3.60;99.90;;;;;;15605394;22;20097;-86
2022/04/09 01:45:19;;;;;;;7.95;2.08;;;3.70;99.90;;;;;;15607100;22;20023;-87
2022/04/09 01:51:21;;;;;;;18.88;3.70;;;3.70;99.90;;;;;;15605067;22;20057;-86
2022/04/09 01:57:23;;;;;;;14.32;2.03;;;3.70;99.90;;;;;;15605563;22;20084;-86
2022/04/09 02:03:26;;;;;;;13.93;2.25;;;3.80;99.90;;;;;;15605231;22;20208;-85
2022/04/09 02:09:29;;;;;;;10.75;2.03;;;3.80;99.90;;;;;;15604554;22;20140;-85
2022/04/09 02:15:30;;;;;;;9.73;2.10;;;3.70;99.90;;;;;;15631802;22;20787;-87
2022/04/09 02:21:32;;;;;;;10.90;2.20;;;3.60;99.90;;;;;;15629431;22;20030;-87
2022/04/09 02:27:34;;;;;;;11.23;2.35;;;3.60;99.90;;;;;;15630771;22;20050;-87
2022/04/09 02:33:36;;;;;;;9.40;1.95;;;3.60;99.90;;;;;;15630353;22;20035;-85
2022/04/09 02:39:38;;;;;;;12.45;1.88;;;3.70;99.90;;;;;;15606396;22;20846;-87
2022/04/09 02:45:40;;;;;;;11.85;2.17;;;3.70;99.90;;;;;;15632107;22;20562;-85
2022/04/09 02:51:42;;;;;;;12.60;2.30;;;3.70;99.90;;;;;;15633838;22;20027;-87
2022/04/09 02:57:44;;;;;;;14.23;2.00;;;3.70;99.90;;;;;;15636537;22;20034;-88
2022/04/09 03:03:46;;;;;;;9.77;2.83;;;3.70;99.90;;;;;;15611721;22;20476;-86
2022/04/09 03:09:48;;;;;;;15.05;2.00;;;3.80;99.90;;;;;;15635270;22;20065;-87
2022/04/09 03:15:50;;;;;;;13.88;2.28;;;3.80;99.90;;;;;;15611103;22;20100;-86
2022/04/09 03:21:52;;;;;;;16.70;2.45;;;3.80;99.90;;;;;;15611708;22;20023;-85
2022/04/09 03:27:54;;;;;;;14.15;2.38;;;3.90;99.90;;;;;;15638556;22;20449;-87
2022/04/09 03:33:56;;;;;;;8.30;2.05;;;3.90;99.90;;;;;;15606899;22;20104;-87
2022/04/09 03:39:58;;;;;;;12.48;3.55;;;3.90;99.90;;;;;;15608737;22;20477;-86
2022/04/09 03:46:00;;;;;;;12.02;1.90;;;3.90;99.90;;;;;;15638947;22;20076;-86
2022/04/09 03:52:02;;;;;;;9.45;1.90;;;3.90;99.90;;;;;;15606949;22;20027;-85
2022/04/09 03:58:04;;;;;;;11.23;2.08;;;3.90;99.90;;;;;;15612047;22;20031;-85
2022/04/09 04:04:06;;;;;;;9.45;2.35;;;3.80;99.90;;;;;;15635174;22;20097;-86
2022/04/09 04:10:10;;;;;;;10.52;2.20;;;3.90;99.90;;;;;;15602777;22;20130;-86
2022/04/09 04:16:12;;;;;;;10.33;3.07;;;3.90;99.90;;;;;;15635564;22;20031;-86
2022/04/09 04:22:13;;;;;;;10.95;2.28;;;3.90;99.90;;;;;;15634796;22;20039;-86
2022/04/09 04:28:15;;;;;;;11.63;2.53;;;4.00;99.90;;;;;;15600817;22;20364;-85
2022/04/09 04:34:17;;;;;;;11.77;3.58;;;4.00;99.90;;;;;;15635980;22;20019;-87
2022/04/09 04:40:19;;;;;;;9.70;3.13;;;4.00;99.90;;;;;;15640329;22;20689;-86
2022/04/09 04:46:21;;;;;;;10.23;2.85;;;4.00;99.90;;;;;;15615861;22;20027;-86
2022/04/09 04:52:23;;;;;;;8.43;2.95;;;4.00;99.90;;;;;;15622696;22;20023;-84
2022/04/09 04:58:25;;;;;;;9.10;2.47;;;4.10;99.90;;;;;;15638686;22;20629;-85
2022/04/09 05:04:27;;;;;;;12.40;2.30;;;4.00;99.90;;;;;;15611783;22;20043;-86
2022/04/09 05:10:29;;;;;;;8.63;2.10;;;4.10;99.90;;;;;;15605887;22;20019;-86
2022/04/09 05:16:30;;;;;;;11.23;2.13;;;4.10;99.90;;;;;;15625882;22;20037;-85
2022/04/09 05:22:33;;;;;;;13.18;2.00;;;4.10;99.90;;;;;;15656626;22;20019;-84
2022/04/09 05:28:34;;;;;;;9.82;2.45;;;4.10;99.90;;;;;;15608826;22;20039;-86
2022/04/09 05:34:36;;;;;;;8.88;2.83;;;4.00;99.90;;;;;;15604983;22;20447;-86
2022/04/09 05:40:40;;;;;;;13.30;2.40;;;4.10;99.90;;;;;;15630643;22;20114;-85
2022/04/09 05:46:42;;;;;;;7.07;2.00;;;4.20;99.90;;;;;;15633718;22;20029;-86
2022/04/09 05:52:44;;;;;;;12.52;2.20;;;4.30;99.90;;;;;;15607324;22;20085;-86
2022/04/09 05:58:46;;;;;;;11.30;2.38;;;4.20;99.90;;;;;;15599478;22;20055;-87
2022/04/09 06:05:08;;;;;;;7.63;2.22;;;4.20;99.90;;;;;;15623782;22;20356;-86
2022/04/09 06:11:10;;;;;;;8.30;2.40;;;4.20;99.90;;;;;;15625995;22;20069;-84
2022/04/09 06:17:12;;;;;;;7.82;2.65;;;4.40;99.90;;;;;;15626149;22;20051;-86
2022/04/09 06:23:14;;;;;;;9.55;2.33;;;4.40;99.90;;;;;;15596194;22;20098;-85
2022/04/09 06:29:16;;;;;;;8.05;2.05;;;4.60;99.90;;;;;;15602518;22;20023;-85
2022/04/09 06:35:18;;;;;;;13.13;1.85;;;4.60;99.90;;;;;;15625734;22;20596;-86
2022/04/09 06:41:19;;;;;;;6.90;1.73;;;4.70;99.90;;;;;;15597341;22;20588;-85
2022/04/09 06:47:21;;;;;;;14.38;2.03;;;4.80;99.90;;;;;;15601018;22;20641;-85
2022/04/09 06:53:23;;;;;;;9.07;1.70;;;4.90;99.90;;;;;;15605302;22;20058;-86
2022/04/09 06:59:25;;;;;;;8.98;1.83;;;5.10;99.90;;;;;;15631797;22;20023;-85
2022/04/09 07:05:27;;;;;;;7.10;1.60;;;5.10;99.90;;;;;;15623285;22;20471;-86
2022/04/09 07:11:29;;;;;;;5.93;1.73;;;4.90;99.90;;;;;;15593378;22;20066;-85
2022/04/09 07:17:31;;;;;;;7.18;1.75;;;4.90;99.90;;;;;;15626438;22;20124;-86
2022/04/09 07:23:33;;;;;;;10.00;2.00;;;5.00;99.90;;;;;;15601398;22;20102;-84
2022/04/09 07:29:35;;;;;;;8.02;1.75;;;5.20;99.90;;;;;;15603805;22;20023;-85
2022/04/09 07:35:37;;;;;;;7.05;1.48;;;5.20;99.90;;;;;;15622578;22;20042;-84
2022/04/09 07:41:40;;;;;;;5.97;1.27;;;5.40;99.90;;;;;;15626414;22;20079;-85
2022/04/09 07:47:44;;;;;;;7.68;1.80;;;5.60;99.90;;;;;;15599149;22;20060;-85
2022/04/09 07:53:45;;;;;;;8.10;1.40;;;5.60;99.90;;;;;;15625815;22;20084;-86
2022/04/09 07:59:47;;;;;;;5.60;1.58;;;5.60;99.90;;;;;;15628650;22;20034;-84
2022/04/09 08:05:49;;;;;;;8.77;1.58;;;5.70;99.90;;;;;;15628044;22;20545;-85
2022/04/09 08:11:53;;;;;;;7.28;1.48;;;5.70;99.90;;;;;;15578528;22;20827;-84
2022/04/09 08:17:56;;;;;;;4.67;1.10;;;5.30;99.90;;;;;;15632125;22;20023;-87
2022/04/09 08:24:18;;;;;;;4.00;1.05;;;4.60;99.90;;;;;;15605808;22;20068;-86
2022/04/09 08:30:21;;;;;;;4.20;1.60;;;4.00;99.90;;;;;;15630201;22;20019;-87
2022/04/09 08:36:23;;;;;;;7.68;2.67;;;4.40;99.90;;;;;;15605213;22;20023;-85
2022/04/09 08:42:28;;;;;;;9.80;2.22;;;5.00;99.90;;;;;;15610100;22;20027;-85
2022/04/09 08:48:31;;;;;;;8.80;2.13;;;5.60;99.90;;;;;;15601864;22;20042;-87
2022/04/09 08:54:34;;;;;;;7.30;1.70;;;6.00;99.90;;;;;;15606013;22;20031;-87
2022/04/09 09:00:36;;;;;;;6.13;1.52;;;6.30;99.90;;;;;;15601557;22;20046;-85
2022/04/09 09:06:44;;;;;;;6.97;1.05;;;6.40;99.90;;;;;;15598926;22;20027;-86
2022/04/09 09:13:04;;;;;;;5.85;1.35;;;5.90;99.90;;;;;;15624081;22;20436;-88
2022/04/09 09:19:09;;;;;;;3.53;1.00;;;4.80;99.90;;;;;;15628729;22;20050;-88
2022/04/09 09:25:12;;;;;;;7.50;1.30;;;4.70;99.90;;;;;;15591626;22;20051;-88
2022/04/09 09:31:15;;;;;;;5.28;1.45;;;5.20;99.90;;;;;;15632567;22;20529;-85
2022/04/09 09:37:23;;;;;;;7.23;1.80;;;5.60;99.90;;;;;;15601381;22;20027;-86
2022/04/09 09:43:26;;;;;;;9.65;1.77;;;6.10;99.90;;;;;;15600720;22;20027;-86
2022/04/09 09:49:28;;;;;;;9.15;1.67;;;6.70;99.90;;;;;;15600406;22;20027;-87
2022/04/09 09:55:42;;;;;;;5.35;1.80;;;6.70;99.90;;;;;;15632369;22;20023;-86
2022/04/09 10:01:47;;;;;;;6.63;1.50;;;7.00;99.90;;;;;;15624613;22;20121;-86
2022/04/09 10:07:50;;;;;;;7.10;1.48;;;7.10;99.90;;;;;;15625709;22;20897;-86
2022/04/09 10:13:56;;;;;;;5.25;1.25;;;7.00;99.90;;;;;;15626086;22;20100;-86
2022/04/09 10:19:59;;;;;;;5.28;1.10;;;7.30;99.90;;;;;;15627685;22;20050;-85
2022/04/09 10:26:01;;;;;;;7.57;1.42;;;7.50;99.90;;;;;;15600921;22;20152;-88
2022/04/09 10:32:04;;;;;;;5.97;1.13;;;7.10;99.90;;;;;;15601085;22;20406;-85
2022/04/09 10:38:06;;;;;;;2.47;0.60;;;6.40;99.90;;;;;;15628799;22;20089;-85
2022/04/09 10:44:09;;;;;;;3.50;0.68;;;4.70;99.90;;;;;;15600781;22;20023;-84
2022/04/09 10:50:11;;;;;;;4.80;0.90;;;5.10;99.90;;;;;;15600168;22;20872;-87
2022/04/09 10:56:25;;;;;;;3.65;1.00;;;6.10;99.90;;;;;;15631117;22;20019;-86
2022/04/09 11:02:30;;;;;;;11.70;1.52;;;6.80;99.90;;;;;;15630921;22;20122;-85
2022/04/09 11:08:32;;;;;;;8.50;1.77;;;7.70;99.90;;;;;;15642432;22;20610;-85
2022/04/09 11:14:47;;;;;;;5.93;1.02;;;7.80;99.90;;;;;;15607107;22;20034;-86
2022/04/09 11:20:49;;;;;;;4.15;1.20;;;7.20;99.90;;;;;;15648475;22;20081;-87
2022/04/09 11:26:55;;;;;;;4.70;1.20;;;7.00;99.90;;;;;;15633602;22;20046;-87
2022/04/09 11:32:57;;;;;;;4.18;1.30;;;7.50;99.90;;;;;;15653260;22;20007;-87
2022/04/09 11:38:59;;;;;;;3.00;0.75;;;7.70;99.90;;;;;;15608825;22;20042;-87
2022/04/09 11:45:01;;;;;;;4.55;0.77;;;7.60;99.90;;;;;;15605372;22;20347;-86
2022/04/09 11:51:03;;;;;;;1.58;0.50;;;8.20;99.90;;;;;;15610856;22;20027;-87
2022/04/09 11:57:11;;;;;;;2.63;0.80;;;7.80;99.90;;;;;;15633570;22;20565;-86
2022/04/09 12:03:15;;;;;;;4.78;0.70;;;6.90;99.90;;;;;;15621703;22;20050;-87
2022/04/09 12:09:17;;;;;;;2.85;0.50;;;4.70;99.90;;;;;;15633496;22;20027;-88
2022/04/09 12:15:29;;;;;;;2.53;0.57;;;3.90;99.90;;;;;;15606868;22;20023;-86
2022/04/09 12:21:31;;;;;;;2.05;0.40;;;4.10;99.90;;;;;;15632353;22;20030;-87
2022/04/09 12:27:43;;;;;;;2.60;0.55;;;4.50;99.90;;;;;;15627937;22;20074;-86
2022/04/09 12:34:04;;;;;;;2.25;0.80;;;4.90;99.90;;;;;;15636045;22;20400;-88
2022/04/09 12:40:16;;;;;;;2.92;0.70;;;5.50;99.90;;;;;;15612770;22;20023;-85
2022/04/09 12:46:19;;;;;;;2.25;0.50;;;5.70;99.90;;;;;;15613001;22;20023;-85
2022/04/09 12:52:21;;;;;;;4.13;0.65;;;5.20;99.90;;;;;;15644990;22;20098;-86
2022/04/09 12:58:23;;;;;;;4.22;0.80;;;4.80;99.90;;;;;;15674588;22;20011;-87
2022/04/09 13:04:25;;;;;;;6.38;0.75;;;4.60;99.90;;;;;;15624360;22;20125;-87
2022/04/09 13:10:26;;;;;;;3.95;1.00;;;4.50;99.90;;;;;;15599194;22;20094;-87
2022/04/09 13:16:28;;;;;;;4.07;0.77;;;4.30;99.90;;;;;;15593388;22;20450;-87
2022/04/09 13:22:31;;;;;;;2.28;0.57;;;4.00;99.90;;;;;;15605612;22;20038;-89
2022/04/09 13:28:33;;;;;;;3.53;1.30;;;3.90;99.90;;;;;;15639701;22;20027;-86
2022/04/09 13:34:36;;;;;;;9.50;2.60;;;4.10;99.90;;;;;;15636223;22;20023;-88
2022/04/09 13:40:38;;;;;;;4.07;0.80;;;4.10;99.90;;;;;;15611689;22;20352;-87
2022/04/09 13:46:42;;;;;;;7.47;1.48;;;4.10;99.90;;;;;;15609680;22;20031;-88
2022/04/09 13:52:45;;;;;;;2.65;1.02;;;4.20;99.90;;;;;;15621655;22;20023;-87
2022/04/09 13:58:47;;;;;;;4.32;1.00;;;4.30;99.90;;;;;;15601697;22;20034;-87
2022/04/09 14:04:48;;;;;;;5.15;0.88;;;4.70;99.90;;;;;;15599911;22;20654;-87
2022/04/09 14:10:50;;;;;;;3.35;1.00;;;5.70;99.90;;;;;;15626687;22;20104;-88
2022/04/09 14:16:53;;;;;;;1.58;0.73;;;6.30;99.90;;;;;;15604182;22;20027;-88
2022/04/09 14:22:55;;;;;;;5.15;1.92;;;6.50;99.90;;;;;;15628912;22;20715;-88
2022/04/09 14:28:58;;;;;;;3.80;2.17;;;6.80;99.90;;;;;;15601753;22;20133;-86
2022/04/09 14:35:00;;;;;;;10.23;5.88;;;6.70;99.90;;;;;;15628193;22;20058;-86
2022/04/09 14:41:05;;;;;;;5.55;1.25;;;6.60;99.90;;;;;;15636635;22;20030;-87
2022/04/09 14:47:06;;;;;;;2.45;0.82;;;6.10;99.90;;;;;;15601798;22;20086;-86
2022/04/09 14:53:09;;;;;;;6.72;1.10;;;5.90;99.90;;;;;;15630335;22;20097;-85
2022/04/09 14:59:11;;;;;;;1.65;0.60;;;5.90;99.90;;;;;;15606668;22;20524;-87
2022/04/09 15:05:13;;;;;;;2.55;0.90;;;6.20;99.90;;;;;;15629058;22;20100;-85
2022/04/09 15:11:15;;;;;;;2.85;0.75;;;6.10;99.90;;;;;;15626608;22;20132;-88
2022/04/09 15:17:17;;;;;;;3.78;0.90;;;5.80;99.90;;;;;;15633272;22;20212;-87
2022/04/09 15:23:19;;;;;;;3.13;0.80;;;5.10;99.90;;;;;;15607768;22;20027;-88
2022/04/09 15:29:25;;;;;;;4.85;1.45;;;4.40;99.90;;;;;;15631064;22;20872;-86
2022/04/09 15:35:26;;;;;;;1.50;0.43;;;4.30;99.90;;;;;;15597415;22;20027;-87
2022/04/09 15:41:28;;;;;;;4.10;0.70;;;4.20;99.90;;;;;;15624024;22;20495;-87
2022/04/09 15:47:30;;;;;;;2.22;0.55;;;4.00;99.90;;;;;;15610999;22;20046;-86
2022/04/09 15:53:35;;;;;;;2.40;0.75;;;3.90;99.90;;;;;;15636992;22;20027;-88
2022/04/09 15:59:37;;;;;;;5.13;1.55;;;4.00;99.90;;;;;;15608417;22;20062;-86
2022/04/09 16:05:39;;;;;;;1.25;0.80;;;4.30;99.90;;;;;;15634147;22;20030;-88
2022/04/09 16:11:41;;;;;;;6.07;1.10;;;4.60;99.90;;;;;;15608090;22;20039;-87
2022/04/09 16:17:43;;;;;;;1.65;0.57;;;4.60;99.90;;;;;;15631484;22;20027;-87
2022/04/09 16:23:50;;;;;;;2.78;0.80;;;4.60;99.90;;;;;;15634497;22;20027;-88
2022/04/09 16:29:52;;;;;;;2.83;0.70;;;4.50;99.90;;;;;;15603202;22;20027;-89
2022/04/09 16:35:54;;;;;;;3.63;0.95;;;4.50;99.90;;;;;;15628944;22;20034;-87
2022/04/09 16:41:57;;;;;;;3.40;1.10;;;4.40;99.90;;;;;;15586581;22;20020;-88
2022/04/09 16:47:59;;;;;;;8.65;1.63;;;4.30;99.90;;;;;;15606688;22;20043;-89
2022/04/09 16:54:01;;;;;;;2.85;0.70;;;4.30;99.90;;;;;;15630152;22;20244;-89
2022/04/09 17:00:05;;;;;;;2.45;0.60;;;3.80;99.90;;;;;;15615032;22;20031;-88
2022/04/09 17:06:07;;;;;;;3.83;0.73;;;4.10;99.90;;;;;;15614010;22;20467;-87
2022/04/09 17:12:10;;;;;;;3.85;0.73;;;4.50;99.90;;;;;;15606083;22;20101;-89
2022/04/09 17:18:11;;;;;;;3.00;0.60;;;4.70;99.90;;;;;;15632147;22;20054;-87
2022/04/09 17:24:14;;;;;;;2.17;1.00;;;4.70;99.90;;;;;;15602153;22;20193;-89
2022/04/09 17:30:15;;;;;;;3.28;0.88;;;4.60;99.90;;;;;;15609146;22;20099;-88
2022/04/09 17:36:18;;;;;;;2.45;0.65;;;4.20;99.90;;;;;;15611290;22;20023;-88
2022/04/09 17:42:20;;;;;;;3.33;1.05;;;4.00;99.90;;;;;;15658190;22;20077;-88
2022/04/09 17:48:23;;;;;;;3.60;1.05;;;3.90;99.90;;;;;;15649839;22;20497;-87
2022/04/09 17:54:25;;;;;;;4.50;1.17;;;4.00;99.90;;;;;;15664531;22;20027;-88
2022/04/09 18:00:27;;;;;;;6.13;1.52;;;3.90;99.90;;;;;;15663097;22;20015;-88
2022/04/09 18:06:29;;;;;;;5.68;1.60;;;3.80;99.90;;;;;;15628066;22;20327;-88
2022/04/09 18:12:35;;;;;;;5.68;1.38;;;3.70;99.90;;;;;;15644009;22;20721;-86
2022/04/09 18:18:37;;;;;;;5.68;1.10;;;3.70;99.90;;;;;;15614310;22;20463;-87
2022/04/09 18:24:39;;;;;;;6.80;1.50;;;3.70;99.90;;;;;;15647572;22;20027;-86
2022/04/09 18:30:40;;;;;;;9.63;1.73;;;3.70;99.90;;;;;;15613064;22;20333;-85
2022/04/09 18:36:42;;;;;;;5.03;1.58;;;3.80;99.90;;;;;;15610948;22;20470;-86
2022/04/09 18:42:44;;;;;;;6.13;1.58;;;3.80;99.90;;;;;;15606806;22;20378;-88
2022/04/09 18:48:46;;;;;;;6.43;1.75;;;3.90;99.90;;;;;;15602681;22;20106;-88
2022/04/09 18:54:48;;;;;;;3.83;0.82;;;3.90;99.90;;;;;;15632050;22;20016;-87
2022/04/09 19:00:50;;;;;;;3.58;0.75;;;3.80;99.90;;;;;;15602424;22;20126;-89
2022/04/09 19:06:52;;;;;;;2.90;0.68;;;3.70;99.90;;;;;;15632768;22;20038;-88
2022/04/09 19:12:54;;;;;;;5.18;1.08;;;3.70;99.90;;;;;;15628821;22;20536;-88
2022/04/09 19:18:56;;;;;;;3.08;0.80;;;3.50;99.90;;;;;;15601100;22;20519;-90
2022/04/09 19:24:57;;;;;;;4.13;0.73;;;3.40;99.90;;;;;;15634579;22;20034;-87
2022/04/09 19:30:59;;;;;;;5.20;1.30;;;3.40;99.90;;;;;;15631151;22;20026;-87
2022/04/09 19:37:01;;;;;;;3.20;1.40;;;3.40;99.90;;;;;;15605540;22;20066;-88
2022/04/09 19:43:03;;;;;;;6.13;1.73;;;3.40;99.90;;;;;;15604772;22;20108;-86
2022/04/09 19:49:05;;;;;;;4.40;1.67;;;3.20;99.90;;;;;;15604463;22;20030;-87
2022/04/09 19:55:08;;;;;;;7.78;1.98;;;3.10;99.90;;;;;;15610150;22;20042;-86
2022/04/09 20:01:10;;;;;;;7.57;1.60;;;3.10;99.90;;;;;;15605065;22;20027;-87
2022/04/09 20:07:12;;;;;;;6.75;1.90;;;3.10;99.90;;;;;;15607202;22;20088;-89
2022/04/09 20:13:17;;;;;;;6.43;1.50;;;3.20;99.90;;;;;;15605081;22;20838;-85
2022/04/09 20:19:19;;;;;;;4.90;1.38;;;3.20;99.90;;;;;;15630961;22;20026;-85
2022/04/09 20:25:22;;;;;;;6.32;1.63;;;3.30;99.90;;;;;;15602859;22;20027;-85
2022/04/09 20:31:24;;;;;;;5.50;1.50;;;3.50;99.90;;;;;;15603522;22;20149;-87
2022/04/09 20:37:26;;;;;;;4.75;1.35;;;3.50;99.90;;;;;;15602352;22;20030;-88
2022/04/09 20:43:28;;;;;;;6.28;1.75;;;3.60;99.90;;;;;;15632521;22;20034;-86
2022/04/09 20:49:30;;;;;;;7.50;1.63;;;3.60;99.90;;;;;;15630289;22;20110;-88
2022/04/09 20:55:34;;;;;;;4.72;1.70;;;3.60;99.90;;;;;;15602093;22;20023;-86
2022/04/09 21:01:36;;;;;;;6.50;2.00;;;3.50;99.90;;;;;;15603837;22;20110;-88
2022/04/09 21:07:38;;;;;;;6.22;1.80;;;3.40;99.90;;;;;;15631803;22;20023;-88
2022/04/09 21:13:39;;;;;;;7.50;2.70;;;3.30;99.90;;;;;;15608550;22;20102;-87
2022/04/09 21:19:42;;;;;;;7.53;2.30;;;3.10;99.90;;;;;;15604203;22;20027;-88
2022/04/09 21:25:43;;;;;;;8.70;2.58;;;2.90;99.90;;;;;;15628490;22;20150;-86
2022/04/09 21:31:45;;;;;;;8.75;1.92;;;2.80;99.90;;;;;;15604339;22;20025;-85
2022/04/09 21:37:47;;;;;;;9.35;2.33;;;2.60;99.90;;;;;;15605352;22;20023;-86
2022/04/09 21:43:49;;;;;;;9.02;2.53;;;2.60;99.90;;;;;;15605060;22;20156;-85
2022/04/09 21:49:51;;;;;;;7.13;2.15;;;2.50;99.90;;;;;;15608994;22;20491;-88
2022/04/09 21:55:53;;;;;;;6.18;1.90;;;2.40;99.90;;;;;;15637237;22;20027;-85
2022/04/09 22:01:55;;;;;;;9.95;2.00;;;2.50;99.90;;;;;;15607265;22;20051;-86
2022/04/09 22:07:57;;;;;;;10.52;2.08;;;2.50;99.90;;;;;;15617565;22;20036;-88
2022/04/09 22:14:00;;;;;;;10.50;2.40;;;2.50;99.90;;;;;;15615125;22;20158;-88
2022/04/09 22:20:02;;;;;;;7.65;1.95;;;2.50;99.90;;;;;;15614067;22;20069;-86
2022/04/09 22:26:04;;;;;;;8.13;1.98;;;2.50;99.90;;;;;;15627491;22;20073;-86
2022/04/09 22:32:08;;;;;;;7.47;2.15;;;2.50;99.90;;;;;;15600663;22;20102;-85
2022/04/09 22:38:10;;;;;;;8.48;1.60;;;2.50;99.90;;;;;;15601572;22;20201;-88
2022/04/09 22:44:12;;;;;;;8.82;1.73;;;2.50;99.90;;;;;;15626574;22;20034;-85
2022/04/09 22:50:14;;;;;;;5.40;1.50;;;2.50;99.90;;;;;;15629592;22;20092;-85
2022/04/09 22:56:18;;;;;;;10.02;1.63;;;2.50;99.90;;;;;;15602234;22;20144;-87
2022/04/09 23:02:20;;;;;;;5.23;1.53;;;2.50;99.90;;;;;;15632947;22;20034;-88
2022/04/09 23:08:22;;;;;;;7.75;1.80;;;2.40;99.90;;;;;;15608332;22;20039;-87
2022/04/09 23:14:24;;;;;;;4.70;1.40;;;2.40;99.90;;;;;;15604363;22;20141;-84
2022/04/09 23:20:25;;;;;;;7.65;1.40;;;2.50;99.90;;;;;;15609339;22;20478;-84
2022/04/09 23:26:27;;;;;;;7.43;1.90;;;2.50;99.90;;;;;;15502938;22;20056;-84
2022/04/09 23:32:29;;;;;;;5.90;1.70;;;2.50;99.90;;;;;;15479933;22;20209;-87
2022/04/09 23:38:31;;;;;;;7.45;1.77;;;2.50;99.90;;;;;;15483801;23;20024;-86
2022/04/09 23:44:33;;;;;;;6.05;1.70;;;2.40;99.90;;;;;;15501859;22;20145;-87
2022/04/09 23:50:36;;;;;;;7.00;1.73;;;2.40;99.90;;;;;;15482140;22;20031;-88
2022/04/09 23:56:38;;;;;;;6.75;1.83;;;2.40;99.90;;;;;;15478475;23;20526;-88
